Time;durP1;ratioP1;P1;durP2;ratioP2;P2;SDS_P1;SDS_P2;PMS_P1;PMS_P2;Temp;Humidity;BMP_temperature;BMP_pressure;BME280_temperature;BME280_humidity;BME280_pressure;Samples;Min_cycle;Max_cycle;Signal;HPM_P1;HPM_P2
2022/09/21 00:01:22;;;;;;;2.23;1.87;;;;;;;9.69;100.00;99751.34;1673234;84;20998;-72
2022/09/21 00:03:54;;;;;;;1.57;1.47;;;;;;;9.67;100.00;99755.53;1657357;85;21113;-72
2022/09/21 00:06:23;;;;;;;1.73;1.47;;;;;;;9.69;100.00;99752.67;1656449;85;21068;-72
2022/09/21 00:08:52;;;;;;;1.47;1.17;;;;;;;9.69;100.00;99752.16;1675137;83;21797;-73
2022/09/21 00:11:26;;;;;;;1.57;1.47;;;;;;;9.71;100.00;99758.62;1655655;85;21046;-72
2022/09/21 00:13:57;;;;;;;1.67;1.57;;;;;;;9.72;100.00;99750.44;1669739;84;21030;-73
2022/09/21 00:16:23;;;;;;;1.50;1.40;;;;;;;9.72;100.00;99750.96;1649920;83;21085;-72
2022/09/21 00:18:51;;;;;;;1.87;1.77;;;;;;;9.70;100.00;99754.30;1649972;85;21584;-73
2022/09/21 00:21:18;;;;;;;1.73;1.60;;;;;;;9.68;100.00;99746.54;1688308;84;21062;-73
2022/09/21 00:23:45;;;;;;;1.60;1.50;;;;;;;9.67;100.00;99745.40;1699156;83;21027;-73
2022/09/21 00:26:18;;;;;;;6.93;2.80;;;;;;;9.67;100.00;99745.40;1678674;83;21105;-74
2022/09/21 00:28:49;;;;;;;1.70;1.53;;;;;;;9.68;100.00;99743.88;1678313;83;21057;-73
2022/09/21 00:31:17;;;;;;;1.73;1.63;;;;;;;9.69;100.00;99752.16;1650877;85;21152;-73
2022/09/21 00:33:43;;;;;;;1.03;1.00;;;;;;;9.71;100.00;99745.31;1687298;84;21045;-72
2022/09/21 00:36:15;;;;;;;0.72;0.72;;;;;;;9.70;100.00;99744.50;1693556;83;21017;-73
2022/09/21 00:38:43;;;;;;;1.07;1.07;;;;;;;9.68;100.00;99741.70;1718020;82;20961;-73
2022/09/21 00:41:11;;;;;;;2.00;1.20;;;;;;;9.67;100.00;99745.40;1721311;82;21053;-73
2022/09/21 00:43:49;;;;;;;1.13;1.13;;;;;;;9.65;100.00;99737.61;1716251;82;21054;-72
2022/09/21 00:46:26;;;;;;;1.30;1.27;;;;;;;9.65;100.00;99743.45;1715249;82;21518;-73
2022/09/21 00:48:53;;;;;;;2.10;1.90;;;;;;;9.65;100.00;99740.78;1711780;82;21024;-73
2022/09/21 00:51:20;;;;;;;;;;;;;;;9.66;100.00;99741.08;1688452;84;21065;-72
2022/09/21 00:53:50;;;;;;;2.17;1.20;;;;;;;9.67;100.00;99744.06;1652090;85;20230;-74
2022/09/21 00:56:16;;;;;;;1.77;1.67;;;;;;;9.62;100.00;99742.50;1671754;85;21018;-74
2022/09/21 00:58:48;;;;;;;1.70;1.60;;;;;;;9.62;100.00;99738.50;1682632;84;21225;-73
2022/09/21 01:01:17;;;;;;;0.47;0.43;;;;;;;9.63;100.00;99732.18;1682563;84;21033;-73
2022/09/21 01:03:47;;;;;;;1.00;0.90;;;;;;;9.59;100.00;99740.22;1665210;85;21131;-74
2022/09/21 01:06:16;;;;;;;2.10;1.67;;;;;;;9.55;100.00;99730.50;1674400;84;21521;-73
2022/09/21 01:08:51;;;;;;;1.23;1.23;;;;;;;9.54;100.00;99729.66;1685638;83;21094;-73
2022/09/21 01:11:35;;;;;;;0.93;0.60;;;;;;;9.54;100.00;99739.48;1659956;85;20990;-73
2022/09/21 01:14:08;;;;;;;1.80;1.27;;;;;;;9.53;100.00;99724.53;1653904;85;21160;-74
2022/09/21 01:16:46;;;;;;;1.57;1.40;;;;;;;9.52;100.00;99733.55;1677047;84;21032;-73
2022/09/21 01:19:37;;;;;;;1.53;1.53;;;;;;;9.53;100.00;99733.84;1685124;84;21117;-74
2022/09/21 01:22:15;;;;;;;2.00;1.90;;;;;;;9.53;100.00;99725.86;1692467;84;21108;-74
2022/09/21 01:24:53;;;;;;;1.53;1.43;;;;;;;9.53;100.00;99727.19;1703635;84;20970;-72
2022/09/21 01:27:54;;;;;;;1.40;1.40;;;;;;;9.53;100.00;99729.36;1697866;84;21134;-75
2022/09/21 01:30:21;;;;;;;1.63;1.53;;;;;;;9.54;100.00;99732.32;1692958;84;21036;-74
2022/09/21 01:32:56;;;;;;;1.13;1.10;;;;;;;9.54;100.00;99728.84;1685535;84;21566;-73
2022/09/21 01:35:36;;;;;;;1.53;1.43;;;;;;;9.53;100.00;99734.69;1685322;84;21027;-73
2022/09/21 01:38:07;;;;;;;0.93;0.93;;;;;;;9.51;100.00;99735.88;1706618;83;21523;-74
2022/09/21 01:40:38;;;;;;;1.70;1.60;;;;;;;9.49;100.00;99736.59;1709943;83;21089;-74
2022/09/21 01:43:08;;;;;;;1.40;1.30;;;;;;;9.49;100.00;99738.77;1707982;83;21061;-73
2022/09/21 01:45:40;;;;;;;2.70;1.37;;;;;;;9.47;100.00;99738.11;1714055;82;21067;-74
2022/09/21 01:48:07;;;;;;;2.40;1.77;;;;;;;9.50;100.00;99742.23;1706423;84;21002;-72
2022/09/21 01:50:39;;;;;;;1.93;1.80;;;;;;;9.51;100.00;99731.89;1698756;84;21081;-74
2022/09/21 01:53:14;;;;;;;1.30;1.20;;;;;;;9.54;100.00;99730.98;1699161;84;21081;-73
2022/09/21 01:55:49;;;;;;;2.83;1.50;;;;;;;9.55;100.00;99739.30;1693414;84;21495;-72
2022/09/21 01:58:32;;;;;;;1.53;1.43;;;;;;;9.56;100.00;99732.13;1701807;84;21065;-74
2022/09/21 02:00:59;;;;;;;1.63;1.63;;;;;;;9.55;100.00;99737.16;1720478;82;21492;-73
2022/09/21 02:03:49;;;;;;;1.77;1.60;;;;;;;9.55;100.00;99726.00;1735002;83;21065;-73
2022/09/21 02:06:17;;;;;;;1.57;1.40;;;;;;;9.55;100.00;99739.30;1686044;82;21041;-73
2022/09/21 02:08:45;;;;;;;3.00;1.70;;;;;;;9.53;100.00;99741.34;1734194;82;21010;-73
2022/09/21 02:11:12;;;;;;;1.60;1.50;;;;;;;9.52;100.00;99737.53;1669745;84;21588;-74
2022/09/21 02:13:43;;;;;;;3.37;1.90;;;;;;;9.52;100.00;99742.86;1672540;85;21105;-74
2022/09/21 02:16:40;;;;;;;1.80;1.63;;;;;;;9.51;100.00;99738.05;1731465;82;21125;-73
2022/09/21 02:19:20;;;;;;;2.27;2.17;;;;;;;9.53;100.00;99747.98;1714721;82;21028;-74
2022/09/21 02:22:12;;;;;;;2.00;1.90;;;;;;;9.51;100.00;99744.70;1692017;84;20997;-73
2022/09/21 02:24:46;;;;;;;1.40;1.30;;;;;;;9.50;100.00;99747.55;1705709;84;21018;-74
2022/09/21 02:27:46;;;;;;;2.67;1.90;;;;;;;9.48;100.00;99746.94;1700533;83;21088;-74
2022/09/21 02:30:23;;;;;;;1.73;1.63;;;;;;;9.49;100.00;99749.41;1689666;84;20997;-73
2022/09/21 02:33:08;;;;;;;5.63;2.30;;;;;;;9.47;100.00;99750.08;1686204;84;21117;-74
2022/09/21 02:35:55;;;;;;;2.30;2.10;;;;;;;9.49;100.00;99748.07;1694688;84;21538;-74
2022/09/21 02:38:39;;;;;;;2.03;1.93;;;;;;;9.51;100.00;99752.69;1710045;82;21116;-73
2022/09/21 02:41:29;;;;;;;1.40;1.30;;;;;;;9.51;100.00;99750.52;1702798;84;21051;-74
2022/09/21 02:44:03;;;;;;;1.50;1.50;;;;;;;9.51;100.00;99756.68;1703272;84;21003;-74
2022/09/21 02:46:35;;;;;;;1.30;1.17;;;;;;;9.51;100.00;99759.34;1725827;83;21014;-74
2022/09/21 02:49:09;;;;;;;1.97;1.87;;;;;;;9.51;100.00;99751.36;1729817;82;21128;-74
2022/09/21 02:51:43;;;;;;;1.63;1.53;;;;;;;9.52;100.00;99755.64;1732434;82;21014;-74
2022/09/21 02:54:13;;;;;;;2.03;1.73;;;;;;;9.55;100.00;99749.94;1699679;83;21058;-74
2022/09/21 02:56:41;;;;;;;1.63;1.53;;;;;;;9.56;100.00;99756.08;1714782;83;21020;-75
2022/09/21 02:59:08;;;;;;;1.63;1.40;;;;;;;9.58;100.00;99758.55;1727622;82;21069;-74
2022/09/21 03:01:35;;;;;;;1.10;1.10;;;;;;;9.54;100.00;99767.42;1717744;82;21002;-75
2022/09/21 03:04:02;;;;;;;5.47;2.43;;;;;;;9.52;100.00;99765.47;1680005;84;21125;-74
2022/09/21 03:06:28;;;;;;;;;;;;;;;9.50;100.00;99763.00;1665268;85;21571;-74
2022/09/21 03:08:56;;;;;;;2.00;1.53;;;;;;;9.53;100.00;99769.76;1727109;82;20448;-74
2022/09/21 03:11:23;;;;;;;1.27;1.20;;;;;;;9.50;100.00;99769.66;1721350;82;20995;-74
2022/09/21 03:13:49;;;;;;;1.73;1.63;;;;;;;9.52;100.00;99768.95;1719933;82;21069;-74
2022/09/21 03:16:15;;;;;;;;;;;;;;;9.55;100.00;99773.89;1728441;82;21082;-73
2022/09/21 03:18:43;;;;;;;1.13;1.13;;;;;;;9.52;100.00;99776.92;1732120;83;20148;-73
2022/09/21 03:21:11;;;;;;;1.77;1.67;;;;;;;9.48;100.00;99770.88;1696742;84;20977;-73
2022/09/21 03:23:38;;;;;;;2.30;1.63;;;;;;;9.47;100.00;99775.87;1704181;84;20994;-75
2022/09/21 03:26:05;;;;;;;2.77;1.90;;;;;;;9.49;100.00;99779.16;1677151;85;21017;-73
2022/09/21 03:28:31;;;;;;;1.30;1.20;;;;;;;9.51;100.00;99779.77;1734678;81;21077;-73
2022/09/21 03:30:58;;;;;;;1.62;1.52;;;;;;;9.52;100.00;99772.94;1684957;84;21158;-74
2022/09/21 03:33:24;;;;;;;1.67;0.98;;;;;;;9.54;100.00;99780.21;1732060;82;21100;-74
2022/09/21 03:35:51;;;;;;;1.33;1.33;;;;;;;9.54;100.00;99780.21;1733915;82;21050;-74
2022/09/21 03:38:20;;;;;;;1.90;1.10;;;;;;;9.53;100.00;99780.40;1727416;82;21058;-74
2022/09/21 03:40:48;;;;;;;1.57;1.47;;;;;;;9.49;100.00;99774.67;1735914;83;21070;-74
2022/09/21 03:43:15;;;;;;;3.10;1.67;;;;;;;9.45;100.00;99774.73;1733660;82;21117;-75
2022/09/21 03:45:41;;;;;;;;;;;;;;;9.46;100.00;99784.88;1723241;83;21513;-75
2022/09/21 03:48:11;;;;;;;3.23;2.00;;;;;;;9.47;100.00;99777.20;1733805;82;20163;-73
2022/09/21 03:50:38;;;;;;;1.63;1.57;;;;;;;9.46;100.00;99776.91;1730131;83;21010;-74
2022/09/21 03:53:05;;;;;;;2.35;1.87;;;;;;;9.50;100.00;99778.97;1723654;82;21097;-75
2022/09/21 03:55:33;;;;;;;2.30;1.40;;;;;;;9.47;100.00;99782.00;1717048;82;21010;-74
2022/09/21 03:58:00;;;;;;;1.20;1.10;;;;;;;9.51;100.00;99780.63;1728858;82;20990;-75
2022/09/21 04:00:27;;;;;;;1.60;1.50;;;;;;;9.47;100.00;99784.66;1731923;82;20989;-74
2022/09/21 04:02:53;;;;;;;1.70;1.60;;;;;;;9.46;100.00;99786.22;1724780;83;21025;-75
2022/09/21 04:05:20;;;;;;;1.43;1.33;;;;;;;9.45;100.00;99792.02;1721235;82;21508;-73
2022/09/21 04:07:46;;;;;;;2.85;1.22;;;;;;;9.44;100.00;99782.41;1667855;85;21566;-75
2022/09/21 04:10:18;;;;;;;1.37;1.27;;;;;;;9.47;100.00;99783.84;1718232;82;21020;-76
2022/09/21 04:12:46;;;;;;;1.63;1.53;;;;;;;9.42;100.00;99777.80;1732053;82;21029;-76
2022/09/21 04:15:18;;;;;;;1.70;1.60;;;;;;;9.48;100.00;99792.97;1723999;82;21518;-75
2022/09/21 04:17:46;;;;;;;2.30;1.47;;;;;;;9.48;100.00;99794.30;1716530;83;21040;-74
2022/09/21 04:20:12;;;;;;;1.23;1.23;;;;;;;9.48;100.00;99806.79;1707987;82;21073;-74
2022/09/21 04:22:39;;;;;;;1.25;1.20;;;;;;;9.48;100.00;99804.13;1679614;85;21030;-74
2022/09/21 04:25:06;;;;;;;1.72;1.62;;;;;;;9.48;100.00;99806.27;1671001;85;20966;-74
2022/09/21 04:27:32;;;;;;;1.80;1.70;;;;;;;9.51;100.00;99809.89;1699424;84;21550;-75
2022/09/21 04:29:59;;;;;;;1.80;1.67;;;;;;;9.52;100.00;99806.20;1701126;84;21427;-74
2022/09/21 04:32:26;;;;;;;1.40;1.27;;;;;;;9.52;100.00;99807.52;1723814;82;21025;-74
2022/09/21 04:34:52;;;;;;;1.10;1.00;;;;;;;9.53;100.00;99807.85;1721063;82;21123;-74
2022/09/21 04:37:18;;;;;;;1.02;1.02;;;;;;;9.54;100.00;99802.83;1715512;82;21646;-74
2022/09/21 04:39:44;;;;;;;1.67;1.30;;;;;;;9.54;100.00;99805.48;1722539;83;21080;-74
2022/09/21 04:42:11;;;;;;;2.87;1.05;;;;;;;9.55;100.00;99799.68;1728257;82;21572;-74
2022/09/21 04:44:37;;;;;;;1.40;1.27;;;;;;;9.55;100.00;99803.16;1726805;83;20985;-74
2022/09/21 04:47:04;;;;;;;1.75;1.65;;;;;;;9.55;100.00;99803.16;1725352;82;21065;-75
2022/09/21 04:49:30;;;;;;;1.97;1.40;;;;;;;9.54;100.00;99809.48;1665135;85;21034;-74
2022/09/21 04:51:56;;;;;;;1.82;1.72;;;;;;;9.54;100.00;99805.48;1726341;82;21061;-73
2022/09/21 04:54:22;;;;;;;1.95;1.85;;;;;;;9.19;100.00;99747.44;1733559;82;20963;-75
2022/09/21 04:56:49;;;;;;;1.87;1.63;;;;;;;9.57;100.00;99811.44;1726879;82;21062;-73
2022/09/21 04:59:15;;;;;;;1.07;0.57;;;;;;;9.60;100.00;99808.39;1738248;82;21045;-74
2022/09/21 05:01:41;;;;;;;1.52;1.00;;;;;;;9.59;100.00;99808.91;1698815;83;21013;-78
2022/09/21 05:04:07;;;;;;;0.70;0.70;;;;;;;9.59;100.00;99811.57;1726992;82;21029;-71
2022/09/21 05:06:34;;;;;;;2.52;1.10;;;;;;;9.56;100.00;99809.29;1733753;82;21053;-70
2022/09/21 05:11:47;;;;;;;1.00;1.00;;;;;;;9.57;100.00;99803.45;1725850;82;21037;-71
2022/09/21 05:14:14;;;;;;;1.20;1.10;;;;;;;9.56;100.00;99805.30;1733430;82;20993;-72
2022/09/21 05:16:40;;;;;;;1.33;1.30;;;;;;;9.53;100.00;99805.19;1703365;82;20997;-70
2022/09/21 05:19:07;;;;;;;;;;;;;;;9.54;100.00;99815.31;1703860;83;21576;-73
2022/09/21 05:21:36;;;;;;;1.20;1.20;;;;;;;9.56;100.00;99814.61;1730414;82;20142;-75
2022/09/21 05:24:04;;;;;;;7.03;2.10;;;;;;;9.51;100.00;99809.04;1722746;82;21541;-73
2022/09/21 05:26:30;;;;;;;2.70;2.60;;;;;;;9.54;100.00;99813.98;1728810;82;21695;-72
2022/09/21 05:28:58;;;;;;;1.67;1.57;;;;;;;9.58;100.00;99815.23;1730925;82;21573;-75
2022/09/21 05:31:38;;;;;;;2.03;1.93;;;;;;;9.59;100.00;99814.23;1697335;83;21490;-74
2022/09/21 05:34:22;;;;;;;5.37;2.27;;;;;;;9.63;100.00;99820.80;1704600;83;20994;-73
2022/09/21 05:37:06;;;;;;;3.53;1.53;;;;;;;9.65;100.00;99822.77;1676070;83;21017;-71
2022/09/21 05:39:34;;;;;;;1.80;1.10;;;;;;;9.64;100.00;99820.29;1695890;84;21026;-76
2022/09/21 05:42:01;;;;;;;1.67;1.57;;;;;;;9.63;100.00;99832.78;1701404;83;21127;-76
2022/09/21 05:44:28;;;;;;;3.47;2.63;;;;;;;9.64;100.00;99829.09;1672007;84;21035;-80
2022/09/21 05:47:17;;;;;;;2.70;2.50;;;;;;;9.65;100.00;99829.41;1699649;83;21055;-77
2022/09/21 05:50:00;;;;;;;3.13;2.93;;;;;;;9.66;100.00;99836.88;1696539;84;21496;-77
2022/09/21 05:53:08;;;;;;;3.83;3.63;;;;;;;9.69;100.00;99835.98;1702647;83;21072;-79
2022/09/21 05:55:57;;;;;;;1.63;1.53;;;;;;;9.68;100.00;99841.50;1677385;84;21142;-71
2022/09/21 05:58:40;;;;;;;1.37;1.37;;;;;;;9.68;100.00;99841.50;1707846;83;21357;-72
2022/09/21 06:01:54;;;;;;;1.80;1.70;;;;;;;9.69;100.00;99839.98;1670055;85;21077;-71
2022/09/21 06:04:20;;;;;;;1.73;1.70;;;;;;;9.71;100.00;99840.59;1701188;83;21017;-73
2022/09/21 06:06:46;;;;;;;3.20;2.10;;;;;;;9.73;100.00;99847.06;1734199;82;21041;-71
2022/09/21 06:09:12;;;;;;;1.82;1.62;;;;;;;9.75;100.00;99842.37;1725308;82;21155;-78
2022/09/21 06:11:38;;;;;;;2.50;2.00;;;;;;;9.80;100.00;99845.80;1734085;82;21049;-73
2022/09/21 06:14:05;;;;;;;1.60;1.50;;;;;;;9.83;100.00;99846.23;1726262;82;20993;-73
2022/09/21 06:16:39;;;;;;;;;;;;;;;9.88;100.00;99850.95;1731920;82;21077;-74
2022/09/21 06:19:06;;;;;;;2.17;1.90;;;;;;;9.92;100.00;99846.36;1728103;82;20149;-74
2022/09/21 06:21:32;;;;;;;;;;;;;;;9.89;100.00;99841.44;1711401;82;20981;-72
2022/09/21 06:24:00;;;;;;;2.33;1.60;;;;;;;9.97;100.00;99846.30;1732144;81;20110;-74
2022/09/21 06:26:27;;;;;;;2.47;2.00;;;;;;;9.97;100.00;99843.13;1730784;82;21061;-73
2022/09/21 06:28:54;;;;;;;2.60;2.40;;;;;;;10.05;100.00;99846.13;1732941;82;21112;-73
2022/09/21 06:31:20;;;;;;;2.30;2.20;;;;;;;10.11;100.00;99849.33;1730254;82;21053;-76
2022/09/21 06:33:47;;;;;;;2.08;1.72;;;;;;;10.18;100.00;99845.38;1733606;82;21013;-72
2022/09/21 06:36:13;;;;;;;2.87;1.98;;;;;;;10.23;100.00;99846.95;1729858;80;21037;-72
2022/09/21 06:38:39;;;;;;;1.63;1.53;;;;;;;10.28;100.00;99852.48;1734246;82;21783;-72
2022/09/21 06:41:07;;;;;;;2.42;1.55;;;;;;;10.32;100.00;99853.27;1725042;82;20959;-72
2022/09/21 06:43:33;;;;;;;1.77;1.65;;;;;;;10.32;100.00;99847.94;1723253;82;21037;-72
2022/09/21 06:46:01;;;;;;;1.62;0.88;;;;;;;10.33;100.00;99845.57;1669549;84;21048;-78
2022/09/21 06:48:29;;;;;;;1.50;1.40;;;;;;;10.31;100.00;99854.27;1717946;82;21040;-72
2022/09/21 06:51:00;;;;;;;1.50;1.17;;;;;;;10.38;100.00;99851.66;1707277;83;21024;-76
2022/09/21 06:53:28;;;;;;;4.50;1.47;;;;;;;10.46;100.00;99853.32;1696534;83;21104;-73
2022/09/21 06:56:07;;;;;;;1.20;0.85;;;;;;;10.51;100.00;99853.55;1679057;85;21496;-76
2022/09/21 06:58:34;;;;;;;2.10;1.50;;;;;;;10.55;100.00;99849.46;1671776;84;21004;-71
2022/09/21 07:01:10;;;;;;;2.33;2.22;;;;;;;10.59;100.00;99857.88;1674398;84;21067;-72
2022/09/21 07:03:38;;;;;;;1.10;1.10;;;;;;;10.64;100.00;99862.92;1679302;84;21064;-74
2022/09/21 07:06:07;;;;;;;8.13;6.70;;;;;;;10.69;100.00;99857.78;1662353;85;21576;-74
2022/09/21 07:08:34;;;;;;;1.57;1.47;;;;;;;10.77;100.00;99863.97;1725260;82;21135;-75
2022/09/21 07:11:03;;;;;;;2.00;1.20;;;;;;;10.86;100.00;99860.91;1726991;82;21042;-72
2022/09/21 07:13:29;;;;;;;2.33;2.23;;;;;;;10.93;100.00;99851.60;1730992;82;21057;-73
2022/09/21 07:15:57;;;;;;;2.45;2.02;;;;;;;10.99;100.00;99860.12;1732694;82;21029;-74
2022/09/21 07:18:23;;;;;;;4.00;2.72;;;;;;;11.04;100.00;99863.53;1728413;83;21029;-73
2022/09/21 07:20:49;;;;;;;1.37;1.12;;;;;;;11.09;100.00;99868.56;1711498;82;21623;-74
2022/09/21 07:23:18;;;;;;;3.58;3.10;;;;;;;11.14;100.00;99864.45;1711106;83;21152;-72
2022/09/21 07:25:49;;;;;;;1.57;0.97;;;;;;;10.82;100.00;99813.53;1722718;82;22058;-75
2022/09/21 07:28:16;;;;;;;0.50;0.40;;;;;;;11.15;100.00;99870.93;1719320;83;21061;-71
2022/09/21 07:30:42;;;;;;;11.45;1.00;;;;;;;11.07;100.00;99877.25;1721577;82;21144;-74
2022/09/21 07:33:09;;;;;;;0.30;0.30;;;;;;;11.05;100.00;99880.63;1722002;82;21053;-73
2022/09/21 07:35:35;;;;;;;1.37;0.45;;;;;;;11.01;100.00;99879.40;1702677;83;21064;-73
2022/09/21 07:38:06;;;;;;;0.80;0.80;;;;;;;11.01;100.00;99878.06;1734428;82;21104;-72
2022/09/21 07:40:34;;;;;;;2.15;1.15;;;;;;;11.05;100.00;99880.63;1725387;82;21072;-74
2022/09/21 07:43:01;;;;;;;1.95;0.53;;;;;;;11.09;100.00;99875.23;1678471;84;21140;-74
2022/09/21 07:45:30;;;;;;;2.05;0.62;;;;;;;11.08;100.00;99872.76;1668333;85;21073;-76
2022/09/21 07:48:04;;;;;;;0.50;0.50;;;;;;;11.08;100.00;99868.23;1690911;84;21102;-77
2022/09/21 07:50:35;;;;;;;0.90;0.90;;;;;;;11.08;100.00;99888.24;1688240;84;21006;-75
2022/09/21 07:53:02;;;;;;;1.42;0.75;;;;;;;11.04;100.00;99896.86;1681337;84;21053;-74
2022/09/21 07:55:29;;;;;;;2.95;1.22;;;;;;;10.99;100.00;99896.64;1659485;84;21197;-81
2022/09/21 08:00:41;;;;;;;1.55;1.10;;;;;;;10.90;100.00;99893.33;1680380;84;21100;-75
2022/09/21 08:03:10;;;;;;;1.90;0.87;;;;;;;10.89;100.00;99895.70;1717952;83;21120;-74
2022/09/21 08:05:39;;;;;;;1.47;1.37;;;;;;;10.89;100.00;99893.03;1729208;82;21117;-81
2022/09/21 08:08:06;;;;;;;1.75;1.65;;;;;;;10.88;100.00;99896.19;1717365;82;21464;-74
2022/09/21 08:10:32;;;;;;;2.17;1.75;;;;;;;10.89;100.00;99900.51;1729166;82;21888;-74
2022/09/21 08:12:58;;;;;;;2.05;1.50;;;;;;;10.87;100.00;99893.23;1699068;84;21648;-73
2022/09/21 08:15:26;;;;;;;1.35;1.15;;;;;;;10.88;100.00;99898.03;1702050;83;21150;-75
2022/09/21 08:17:53;;;;;;;2.40;1.55;;;;;;;10.89;100.00;99893.03;1695626;84;21076;-73
2022/09/21 08:20:20;;;;;;;3.23;1.17;;;;;;;10.87;100.00;99895.08;1679696;84;21072;-74
2022/09/21 08:22:47;;;;;;;2.37;2.05;;;;;;;10.90;100.00;99897.33;1727125;82;21144;-76
2022/09/21 08:25:15;;;;;;;1.57;1.37;;;;;;;10.91;100.00;99898.98;1714409;83;21021;-74
2022/09/21 08:27:41;;;;;;;1.47;1.10;;;;;;;10.96;100.00;99901.03;1713793;82;21072;-72
2022/09/21 08:30:08;;;;;;;;;;;;;;;11.02;100.00;99903.73;1721658;83;21465;-73
2022/09/21 08:32:34;;;;;;;2.92;1.67;;;;;;;11.09;100.00;99906.39;1731965;82;20159;-76
2022/09/21 08:35:01;;;;;;;1.35;1.35;;;;;;;11.06;100.00;99904.15;1719818;82;21489;-72
2022/09/21 08:37:28;;;;;;;1.82;1.27;;;;;;;11.08;100.00;99902.09;1688452;84;21632;-77
2022/09/21 08:39:54;;;;;;;1.30;1.27;;;;;;;11.10;100.00;99904.86;1695790;84;21077;-77
2022/09/21 08:42:51;;;;;;;1.30;1.20;;;;;;;11.15;100.00;99898.94;1721355;82;21141;-73
2022/09/21 08:45:20;;;;;;;0.98;0.98;;;;;;;11.21;100.00;99897.30;1722636;83;21525;-75
2022/09/21 08:47:55;;;;;;;1.30;1.30;;;;;;;11.29;100.00;99894.43;1711689;83;21144;-81
2022/09/21 08:50:32;;;;;;;0.82;0.82;;;;;;;11.32;100.00;99894.52;1716799;83;21166;-73
2022/09/21 08:53:07;;;;;;;2.58;1.47;;;;;;;11.38;100.00;99904.41;1695889;83;21037;-75
2022/09/21 08:55:33;;;;;;;1.12;1.02;;;;;;;11.43;100.00;99900.09;1706459;84;21544;-72
2022/09/21 08:58:00;;;;;;;1.77;1.67;;;;;;;11.48;100.00;99900.28;1707321;84;21545;-75
2022/09/21 09:00:27;;;;;;;;;;;;;;;11.54;100.00;99907.17;1692792;84;22069;-73
2022/09/21 09:03:17;;;;;;;1.87;1.82;;;;;;;11.64;100.00;99906.23;1703466;83;20142;-72
2022/09/21 09:06:03;;;;;;;1.47;0.78;;;;;;;11.68;100.00;99909.64;1728422;82;21156;-75
2022/09/21 09:08:52;;;;;;;0.62;0.57;;;;;;;11.79;100.00;99913.54;1728354;82;21529;-74
2022/09/21 09:11:35;;;;;;;0.50;0.30;;;;;;;11.76;100.00;99918.47;1686071;82;21085;-74
2022/09/21 09:14:12;;;;;;;0.80;0.80;;;;;;;11.72;100.00;99912.72;1725908;82;21017;-74
2022/09/21 09:17:04;;;;;;;0.85;0.85;;;;;;;11.68;100.00;99916.83;1714263;82;21101;-73
2022/09/21 09:21:37;;;;;;;1.20;1.10;;;;;;;11.66;100.00;99926.90;1763625;79;22886;-72
2022/09/21 09:24:24;;;;;;;0.47;0.37;;;;;;;11.58;100.00;99919.89;1710598;82;21024;-75
2022/09/21 09:27:04;;;;;;;1.05;0.88;;;;;;;11.50;100.00;99927.59;1689177;83;21000;-75
2022/09/21 09:29:39;;;;;;;0.78;0.70;;;;;;;11.45;100.00;99926.06;1686812;83;21026;-73
2022/09/21 09:32:13;;;;;;;4.83;4.53;;;;;;;11.38;100.00;99926.56;1704628;82;21041;-76
2022/09/21 09:34:53;;;;;;;2.10;1.92;;;;;;;11.38;100.00;99927.90;1650588;85;21100;-75
2022/09/21 09:37:29;;;;;;;0.90;0.90;;;;;;;11.41;100.00;99931.48;1669514;84;21309;-73
2022/09/21 09:39:58;;;;;;;3.22;1.70;;;;;;;11.46;100.00;99931.69;1674838;84;21031;-74
2022/09/21 09:42:48;;;;;;;1.35;1.05;;;;;;;11.51;100.00;99935.10;1660294;82;21095;-75
2022/09/21 09:45:41;;;;;;;2.67;1.32;;;;;;;11.53;100.00;99930.87;1628137;84;21054;-74
2022/09/21 09:48:25;;;;;;;3.42;1.07;;;;;;;11.53;100.00;99926.86;1652320;85;21079;-76
2022/09/21 09:50:52;;;;;;;2.27;1.20;;;;;;;11.52;100.00;99938.58;1681193;84;21139;-75
2022/09/21 09:53:22;;;;;;;3.17;2.20;;;;;;;11.48;100.00;99944.84;1681814;84;20994;-75
2022/09/21 09:55:52;;;;;;;1.75;1.62;;;;;;;11.47;100.00;99934.69;1671148;84;21101;-76
2022/09/21 09:58:29;;;;;;;1.12;0.45;;;;;;;11.50;100.00;99932.11;1678469;83;21169;-73
2022/09/21 10:00:55;;;;;;;;;;;;;;;11.53;98.20;99936.20;1671883;83;21043;-76
2022/09/21 10:03:27;;;;;;;2.25;1.80;;;;;;;11.55;99.10;99926.17;1674425;84;20182;-74
2022/09/21 10:05:53;;;;;;;0.60;0.60;;;;;;;11.53;99.08;99939.72;1644131;84;21139;-74
2022/09/21 10:08:42;;;;;;;1.32;1.00;;;;;;;11.60;98.64;99937.04;1636884;85;21032;-76
2022/09/21 10:11:13;;;;;;;0.75;0.75;;;;;;;11.63;97.78;99940.13;1631628;86;21147;-85
2022/09/21 10:13:46;;;;;;;0.85;0.85;;;;;;;11.67;97.33;99937.34;1661253;84;21233;-73
2022/09/21 10:16:20;;;;;;;0.45;0.45;;;;;;;11.68;97.57;99934.19;1669322;84;21089;-74
2022/09/21 10:19:00;;;;;;;1.52;1.15;;;;;;;11.71;97.18;99940.43;1693354;83;21098;-75
2022/09/21 10:21:40;;;;;;;2.52;1.20;;;;;;;11.76;97.43;99937.97;1687048;83;21040;-73
2022/09/21 10:24:20;;;;;;;0.40;0.40;;;;;;;11.80;97.89;99936.53;1665841;84;21614;-77
2022/09/21 10:27:09;;;;;;;1.47;0.55;;;;;;;11.84;97.19;99943.09;1643516;86;21540;-72
2022/09/21 10:29:48;;;;;;;0.75;0.53;;;;;;;11.86;97.48;99937.03;1640014;86;21161;-76
2022/09/21 10:32:25;;;;;;;1.22;0.80;;;;;;;11.88;96.74;99944.35;1640093;86;21158;-77
2022/09/21 10:35:09;;;;;;;3.20;1.00;;;;;;;11.91;97.00;99943.13;1627688;87;21039;-72
2022/09/21 10:37:44;;;;;;;1.45;0.65;;;;;;;11.90;97.25;99942.00;1649674;85;21045;-75
2022/09/21 10:40:23;;;;;;;1.95;0.65;;;;;;;11.96;97.63;99950.52;1647654;85;21066;-74
2022/09/21 10:42:58;;;;;;;1.55;0.30;;;;;;;11.98;94.62;99945.78;1636773;86;21078;-78
2022/09/21 10:45:35;;;;;;;0.68;0.40;;;;;;;11.97;94.66;99946.31;1637545;86;21025;-74
2022/09/21 10:48:16;;;;;;;2.08;0.60;;;;;;;11.98;94.92;99948.45;1673528;84;21054;-74
2022/09/21 10:50:45;;;;;;;0.95;0.60;;;;;;;12.01;95.25;99948.05;1657125;84;20994;-78
2022/09/21 10:53:30;;;;;;;0.40;0.40;;;;;;;12.06;95.17;99949.59;1642236;85;21068;-78
2022/09/21 10:56:15;;;;;;;0.60;0.45;;;;;;;12.10;94.92;99952.16;1666122;84;21140;-79
2022/09/21 10:59:03;;;;;;;0.57;0.53;;;;;;;12.17;94.91;99952.16;1638940;86;21075;-74
2022/09/21 11:01:30;;;;;;;0.70;0.70;;;;;;;12.25;93.80;99956.75;1632231;86;21623;-78
2022/09/21 11:04:05;;;;;;;0.60;0.40;;;;;;;12.29;92.00;99948.33;1674777;84;21581;-80
2022/09/21 11:06:40;;;;;;;0.40;0.40;;;;;;;12.32;91.34;99947.89;1664752;84;21038;-75
2022/09/21 11:09:27;;;;;;;0.70;0.70;;;;;;;12.39;92.20;99942.02;1668979;84;21051;-85
2022/09/21 11:12:37;;;;;;;1.60;0.30;;;;;;;12.48;91.46;99939.42;1658750;85;21042;-80
2022/09/21 11:15:48;;;;;;;0.53;0.53;;;;;;;12.56;91.46;99937.84;1672761;84;21124;-77
2022/09/21 11:18:35;;;;;;;0.40;0.20;;;;;;;12.65;89.41;99943.79;1658811;84;22153;-77
2022/09/21 11:21:21;;;;;;;0.68;0.68;;;;;;;12.66;87.79;99942.24;1679287;84;20983;-75
2022/09/21 11:24:04;;;;;;;0.65;0.65;;;;;;;12.66;87.60;99938.23;1681971;84;21068;-75
2022/09/21 11:26:45;;;;;;;0.62;0.62;;;;;;;12.68;88.44;99937.19;1677802;84;21015;-75
2022/09/21 11:29:17;;;;;;;0.40;0.30;;;;;;;12.74;87.76;99936.36;1663900;84;21299;-74
2022/09/21 11:32:06;;;;;;;0.40;0.40;;;;;;;12.76;88.25;99934.29;1638949;85;21019;-74
2022/09/21 11:35:03;;;;;;;1.60;0.40;;;;;;;12.79;87.94;99932.51;1664282;84;21055;-73
2022/09/21 11:37:50;;;;;;;0.68;0.40;;;;;;;12.83;88.30;99928.41;1669933;84;21087;-75
2022/09/21 11:40:59;;;;;;;0.30;0.30;;;;;;;12.82;87.51;99932.91;1675532;84;21046;-73
2022/09/21 11:43:46;;;;;;;;;;;;;;;12.77;87.28;99940.77;1663913;84;21104;-79
2022/09/21 11:46:33;;;;;;;0.55;0.40;;;;;;;12.60;91.23;99941.77;1663011;84;20122;-73
2022/09/21 11:49:34;;;;;;;3.17;0.57;;;;;;;12.32;95.33;99959.42;1675798;84;21546;-77
2022/09/21 11:52:24;;;;;;;0.50;0.40;;;;;;;12.05;96.95;99958.13;1659414;84;21101;-73
2022/09/21 11:55:01;;;;;;;0.53;0.40;;;;;;;11.76;100.00;99966.53;1636403;84;21088;-77
2022/09/21 11:57:39;;;;;;;0.33;0.33;;;;;;;11.56;100.00;99954.50;1668112;84;21114;-74
2022/09/21 12:00:19;;;;;;;2.00;0.95;;;;;;;11.38;100.00;99957.25;1675831;84;21100;-75
2022/09/21 12:03:14;;;;;;;1.07;0.35;;;;;;;11.27;100.00;99956.52;1655951;84;21049;-77
2022/09/21 12:06:24;;;;;;;0.80;0.60;;;;;;;11.24;100.00;99962.23;1664838;85;21073;-74
2022/09/21 12:09:26;;;;;;;0.43;0.43;;;;;;;11.23;100.00;99961.95;1660853;86;21655;-76
2022/09/21 12:12:04;;;;;;;2.95;0.50;;;;;;;11.22;100.00;99960.29;1661752;86;21070;-75